createdAt,value
2018-06-05T00:02:12.213Z,61.30
2018-06-05T00:04:41.372Z,60.70
2018-06-05T00:07:10.513Z,61.00
2018-06-05T00:09:39.656Z,61.40
2018-06-05T00:12:09.085Z,61.30
2018-06-05T00:14:38.233Z,61.90
2018-06-05T00:17:07.388Z,62.30
2018-06-05T00:19:36.550Z,61.90
2018-06-05T00:22:05.720Z,61.90
2018-06-05T00:24:35.081Z,62.00
2018-06-05T00:27:04.219Z,62.40
2018-06-05T00:29:33.361Z,61.90
2018-06-05T00:32:02.521Z,62.30
2018-06-05T00:34:31.676Z,61.70
2018-06-05T00:37:01.165Z,61.30
2018-06-05T00:39:30.313Z,61.60
2018-06-05T00:41:59.459Z,61.50
2018-06-05T00:44:28.609Z,62.00
2018-06-05T00:46:57.747Z,62.50
2018-06-05T00:49:26.901Z,62.90
2018-06-05T00:52:08.221Z,62.90
2018-06-05T00:54:37.388Z,62.60
2018-06-05T00:57:07.042Z,62.50
2018-06-05T00:59:36.181Z,62.40
2018-06-05T01:02:06.289Z,62.60
2018-06-05T01:04:35.758Z,63.10
2018-06-05T01:09:33.837Z,63.80
2018-06-05T01:12:03.007Z,63.80
2018-06-05T01:14:32.447Z,64.00
2018-06-05T01:17:01.602Z,64.60
2018-06-05T01:19:30.745Z,64.50
2018-06-05T01:21:59.959Z,64.30
2018-06-05T01:24:29.109Z,64.70
2018-06-05T01:26:58.269Z,64.50
2018-06-05T01:29:27.409Z,64.90
2018-06-05T01:31:56.569Z,64.90
2018-06-05T01:34:25.743Z,65.00
2018-06-05T01:36:54.881Z,64.70
2018-06-05T01:39:24.129Z,65.20
2018-06-05T01:41:53.494Z,65.70
2018-06-05T01:44:22.639Z,65.20
2018-06-05T01:46:51.780Z,64.70
2018-06-05T01:49:20.978Z,64.80
2018-06-05T01:51:50.306Z,64.30
2018-06-05T01:54:19.520Z,64.20
2018-06-05T01:56:48.714Z,63.90
2018-06-05T01:59:17.881Z,63.50
2018-06-05T02:04:15.933Z,64.60
2018-06-05T02:06:45.142Z,64.40
2018-06-05T02:09:14.233Z,64.40
2018-06-05T02:11:43.386Z,64.90
2018-06-05T02:14:12.541Z,65.00
2018-06-05T02:16:41.697Z,64.90
2018-06-05T02:19:10.850Z,65.20
2018-06-05T02:21:40.165Z,65.10
2018-06-05T02:24:09.317Z,65.20
2018-06-05T02:26:38.460Z,65.20
2018-06-05T02:29:07.609Z,65.50
2018-06-05T02:31:36.777Z,65.60
2018-06-05T02:34:05.983Z,65.60
2018-06-05T02:36:35.152Z,65.90
2018-06-05T02:39:05.781Z,66.40
2018-06-05T02:41:34.931Z,66.60
2018-06-05T02:44:04.117Z,66.40
2018-06-05T02:46:33.315Z,66.80
2018-06-05T02:49:02.441Z,66.90
2018-06-05T02:51:31.582Z,66.80
2018-06-05T02:54:00.750Z,66.90
2018-06-05T02:56:29.898Z,67.20
2018-06-05T02:58:59.045Z,67.20
2018-06-05T03:01:28.201Z,67.10
2018-06-05T03:03:57.341Z,67.40
2018-06-05T03:06:26.497Z,67.20
2018-06-05T03:08:55.671Z,67.80
2018-06-05T03:11:24.804Z,67.90
2018-06-05T03:13:53.957Z,68.00
2018-06-05T03:16:23.108Z,68.00
2018-06-05T03:18:52.381Z,68.00
2018-06-05T03:21:21.524Z,68.10
2018-06-05T03:23:50.699Z,67.70
2018-06-05T03:26:19.845Z,67.60
2018-06-05T03:28:49.044Z,67.70
2018-06-05T03:31:18.186Z,67.60
2018-06-05T03:33:47.347Z,67.60
2018-06-05T03:36:16.490Z,67.40
2018-06-05T03:38:45.647Z,67.20
2018-06-05T03:41:14.798Z,67.40
2018-06-05T03:43:43.937Z,67.60
2018-06-05T03:46:13.097Z,67.80
2018-06-05T03:48:42.261Z,67.90
2018-06-05T03:51:11.429Z,67.60
2018-06-05T03:53:40.584Z,67.60
2018-06-05T03:56:09.724Z,67.60
2018-06-05T03:58:38.877Z,67.80
2018-06-05T04:01:08.046Z,68.00
2018-06-05T04:03:37.189Z,68.40
2018-06-05T04:06:06.361Z,68.80
2018-06-05T04:08:35.530Z,68.70
2018-06-05T04:11:04.690Z,68.10
2018-06-05T04:13:33.866Z,68.20
2018-06-05T04:18:31.922Z,68.20
2018-06-05T04:21:01.080Z,67.90
2018-06-05T04:23:30.221Z,68.70
2018-06-05T04:25:59.366Z,67.90
2018-06-05T04:28:28.764Z,67.80
2018-06-05T04:30:57.925Z,68.00
2018-06-05T04:33:27.077Z,68.10
2018-06-05T04:35:56.245Z,68.20
2018-06-05T04:38:25.410Z,68.10
2018-06-05T04:40:55.221Z,68.00
2018-06-05T04:43:24.377Z,68.00
2018-06-05T04:45:53.540Z,67.90
2018-06-05T04:48:22.710Z,67.70
2018-06-05T04:50:51.867Z,67.90
2018-06-05T04:53:21.031Z,68.00
2018-06-05T04:55:50.181Z,67.90
2018-06-05T04:58:19.376Z,67.50
2018-06-05T05:00:48.542Z,67.20
2018-06-05T05:03:17.681Z,67.40
2018-06-05T05:05:46.840Z,67.50
2018-06-05T05:08:16.345Z,67.50
2018-06-05T05:10:45.477Z,67.80
2018-06-05T05:13:14.625Z,68.00
2018-06-05T05:15:43.793Z,68.10
2018-06-05T05:20:41.914Z,68.20
2018-06-05T05:23:11.077Z,67.90
2018-06-05T05:25:40.297Z,67.90
2018-06-05T05:28:09.455Z,67.90
2018-06-05T05:30:38.625Z,67.50
2018-06-05T05:33:07.765Z,67.40
2018-06-05T05:35:36.930Z,67.60
2018-06-05T05:38:06.127Z,68.30
2018-06-05T05:40:35.281Z,67.50
2018-06-05T05:43:04.980Z,67.70
2018-06-05T05:45:34.142Z,67.80
2018-06-05T05:48:03.298Z,67.50
2018-06-05T05:50:32.447Z,67.60
2018-06-05T05:53:01.593Z,67.30
2018-06-05T05:55:30.753Z,67.30
2018-06-05T05:57:59.893Z,67.90
2018-06-05T06:00:29.090Z,67.20
2018-06-05T06:02:58.241Z,66.20
2018-06-05T06:05:27.400Z,65.90
2018-06-05T06:07:56.856Z,66.50
2018-06-05T06:10:26.000Z,66.50
2018-06-05T06:12:55.169Z,66.20
2018-06-05T06:15:24.325Z,65.00
2018-06-05T06:17:53.497Z,65.40
2018-06-05T06:20:22.646Z,64.70
2018-06-05T06:22:51.798Z,64.70
2018-06-05T06:25:20.949Z,65.20
2018-06-05T06:27:50.096Z,65.00
2018-06-05T06:30:19.250Z,65.00
2018-06-05T06:32:48.733Z,64.40
2018-06-05T06:35:17.881Z,64.80
2018-06-05T06:37:47.029Z,65.20
2018-06-05T06:40:16.181Z,64.90
2018-06-05T06:42:45.345Z,64.40
2018-06-05T06:45:14.510Z,65.10
2018-06-05T06:47:43.658Z,65.60
2018-06-05T06:50:12.809Z,66.20
2018-06-05T06:52:41.952Z,66.50
2018-06-05T06:55:11.126Z,65.90
2018-06-05T06:57:40.265Z,65.30
2018-06-05T07:00:09.426Z,64.90
2018-06-05T07:02:38.580Z,66.60
2018-06-05T07:05:07.389Z,65.20
2018-06-05T07:07:36.529Z,65.10
2018-06-05T07:10:05.693Z,65.40
2018-06-05T07:12:34.849Z,65.80
2018-06-05T07:15:03.994Z,65.50
2018-06-05T07:17:33.148Z,64.50
2018-06-05T07:20:02.305Z,64.80
2018-06-05T07:22:31.454Z,64.40
2018-06-05T07:25:00.689Z,64.80
2018-06-05T07:27:29.820Z,63.40
2018-06-05T07:29:59.268Z,64.10
2018-06-05T07:32:28.466Z,64.60
2018-06-05T07:34:57.605Z,64.20
2018-06-05T07:37:25.820Z,64.60
2018-06-05T07:39:54.977Z,63.40
2018-06-05T07:42:24.113Z,64.10
2018-06-05T07:44:53.277Z,63.70
2018-06-05T07:47:22.425Z,62.40
2018-06-05T07:49:51.592Z,61.50
2018-06-05T07:52:20.838Z,62.30
2018-06-05T07:54:49.989Z,64.20
2018-06-05T07:57:19.149Z,62.80
2018-06-05T07:59:48.294Z,63.80
2018-06-05T08:02:17.459Z,60.60
2018-06-05T08:04:46.624Z,62.30
2018-06-05T08:07:15.765Z,63.60
2018-06-05T08:09:44.934Z,64.70
2018-06-05T08:12:14.097Z,64.40
2018-06-05T08:14:43.245Z,62.30
2018-06-05T08:17:12.397Z,61.00
2018-06-05T08:19:41.562Z,62.40
2018-06-05T08:22:10.805Z,60.40
2018-06-05T08:24:39.945Z,59.20
2018-06-05T08:27:09.090Z,60.70
2018-06-05T08:29:38.246Z,59.60
2018-06-05T08:32:16.254Z,58.70
2018-06-05T08:34:45.401Z,58.50
2018-06-05T08:37:14.550Z,59.10
2018-06-05T08:42:13.057Z,62.80
2018-06-05T08:44:42.198Z,61.20
2018-06-05T08:47:11.350Z,60.60
2018-06-05T08:49:40.489Z,59.40
2018-06-05T08:52:09.624Z,57.30
2018-06-05T08:54:38.782Z,59.20
2018-06-05T08:57:07.949Z,60.10
2018-06-05T08:59:37.106Z,60.00
2018-06-05T09:02:06.261Z,59.50
2018-06-05T09:04:35.447Z,58.40
2018-06-05T09:07:04.797Z,59.10
2018-06-05T09:09:33.936Z,59.90
2018-06-05T09:12:03.085Z,58.30
2018-06-05T09:14:32.242Z,59.90
2018-06-05T09:17:01.386Z,58.60
2018-06-05T09:19:30.545Z,58.10
2018-06-05T09:21:59.685Z,57.50
2018-06-05T09:24:28.837Z,57.40
2018-06-05T09:26:58.013Z,55.80
2018-06-05T09:29:27.166Z,57.60
2018-06-05T09:31:56.334Z,58.50
2018-06-05T09:34:25.519Z,57.10
2018-06-05T09:36:54.982Z,55.50
2018-06-05T09:39:24.169Z,56.30
2018-06-05T09:41:53.312Z,56.40
2018-06-05T09:44:22.609Z,55.70
2018-06-05T09:46:51.770Z,56.30
2018-06-05T09:49:20.893Z,55.80
2018-06-05T09:51:50.049Z,52.60
2018-06-05T09:54:19.481Z,54.30
2018-06-05T09:56:48.634Z,54.20
2018-06-05T09:59:17.821Z,53.40
2018-06-05T10:01:47.285Z,52.30
2018-06-05T10:04:16.450Z,53.20
2018-06-05T10:06:45.592Z,53.10
2018-06-05T10:09:14.801Z,53.10
2018-06-05T10:11:43.920Z,53.70
2018-06-05T10:14:13.289Z,52.40
2018-06-05T10:16:42.441Z,54.20
2018-06-05T10:19:11.585Z,53.60
2018-06-05T10:21:40.777Z,52.80
2018-06-05T10:24:09.943Z,53.20
2018-06-05T10:26:39.180Z,53.20
2018-06-05T10:29:08.361Z,51.90
2018-06-05T10:31:37.496Z,51.40
2018-06-05T10:34:06.657Z,51.70
2018-06-05T10:36:35.797Z,50.40
2018-06-05T10:39:07.597Z,48.60
2018-06-05T10:41:36.765Z,50.40
2018-06-05T10:44:05.927Z,48.30
2018-06-05T10:46:35.074Z,47.60
2018-06-05T10:49:04.218Z,46.80
2018-06-05T10:51:33.712Z,48.60
2018-06-05T10:54:02.874Z,48.20
2018-06-05T10:56:32.009Z,44.90
2018-06-05T10:59:01.311Z,43.00
2018-06-05T11:01:30.465Z,46.50
2018-06-05T11:03:59.649Z,47.20
2018-06-05T11:06:28.829Z,47.60
2018-06-05T11:08:57.988Z,46.40
2018-06-05T11:11:27.138Z,47.20
2018-06-05T11:13:56.302Z,47.20
2018-06-05T11:16:25.450Z,45.70
2018-06-05T11:18:54.611Z,47.30
2018-06-05T11:21:23.757Z,44.80
2018-06-05T11:23:52.905Z,45.60
2018-06-05T11:26:22.365Z,43.00
2018-06-05T11:28:51.513Z,43.50
2018-06-05T11:31:20.662Z,43.90
2018-06-05T11:33:49.830Z,41.20
2018-06-05T11:36:18.987Z,43.50
2018-06-05T11:38:48.133Z,43.20
2018-06-05T11:41:17.824Z,40.50
2018-06-05T11:43:46.983Z,42.70
2018-06-05T11:46:16.138Z,42.00
2018-06-05T11:48:45.293Z,42.10
2018-06-05T11:51:14.454Z,41.90
2018-06-05T11:53:43.629Z,40.20
2018-06-05T11:56:12.788Z,40.30
2018-06-05T11:58:41.949Z,40.20
2018-06-05T12:01:11.110Z,39.40
2018-06-05T12:03:40.264Z,39.60
2018-06-05T12:06:09.734Z,38.50
2018-06-05T12:08:38.881Z,43.00
2018-06-05T12:11:08.229Z,43.60
2018-06-05T12:13:37.398Z,42.10
2018-06-05T12:16:06.545Z,42.00
2018-06-05T12:18:35.688Z,39.00
2018-06-05T12:21:04.889Z,41.00
2018-06-05T12:23:34.078Z,42.70
2018-06-05T12:26:03.237Z,43.10
2018-06-05T12:28:32.397Z,42.50
2018-06-05T12:31:01.618Z,40.50
2018-06-05T12:33:30.713Z,39.00
2018-06-05T12:35:59.849Z,39.10
2018-06-05T12:38:29.026Z,41.10
2018-06-05T12:40:58.188Z,43.40
2018-06-05T12:43:27.334Z,43.50
2018-06-05T12:45:56.509Z,40.70
2018-06-05T12:48:25.657Z,37.50
2018-06-05T12:50:54.813Z,38.10
2018-06-05T12:53:24.002Z,41.20
2018-06-05T12:55:53.188Z,41.20
2018-06-05T12:58:22.345Z,40.10
2018-06-05T13:00:51.505Z,40.00
2018-06-05T13:03:20.670Z,40.00
2018-06-05T13:05:49.890Z,41.80
2018-06-05T13:08:19.038Z,39.20
2018-06-05T13:10:48.207Z,39.20
2018-06-05T13:13:17.356Z,41.10
2018-06-05T13:15:46.509Z,40.20
2018-06-05T13:18:15.661Z,42.00
2018-06-05T13:20:44.822Z,42.40
2018-06-05T13:23:14.558Z,44.30
2018-06-05T13:25:43.625Z,43.00
2018-06-05T13:28:12.777Z,42.80
2018-06-05T13:30:41.958Z,42.00
2018-06-05T13:33:11.163Z,44.30
2018-06-05T13:35:40.324Z,43.60
2018-06-05T13:38:09.462Z,42.80
2018-06-05T13:40:38.629Z,43.70
2018-06-05T13:43:07.810Z,42.30
2018-06-05T13:45:36.953Z,42.90
2018-06-05T13:48:06.159Z,44.10
2018-06-05T13:50:35.293Z,44.90
2018-06-05T13:53:04.465Z,42.60
2018-06-05T13:55:33.606Z,43.50
2018-06-05T13:58:02.764Z,44.10
2018-06-05T14:00:31.917Z,41.60
2018-06-05T14:03:01.074Z,43.40
2018-06-05T14:05:30.219Z,42.20
2018-06-05T14:07:59.806Z,41.30
2018-06-05T14:10:28.940Z,40.50
2018-06-05T14:12:58.086Z,40.20
2018-06-05T14:15:27.252Z,41.40
2018-06-05T14:17:56.381Z,40.90
2018-06-05T14:20:25.541Z,41.40
2018-06-05T14:22:54.707Z,42.30
2018-06-05T14:25:23.846Z,42.40
2018-06-05T14:27:53.017Z,42.80
2018-06-05T14:30:22.165Z,43.30
2018-06-05T14:35:20.246Z,44.10
2018-06-05T14:37:49.388Z,44.30
2018-06-05T14:40:18.535Z,45.20
2018-06-05T14:42:47.684Z,44.50
2018-06-05T14:45:17.363Z,42.10
2018-06-05T14:47:46.396Z,42.90
2018-06-05T14:50:15.534Z,44.60
2018-06-05T14:52:44.706Z,43.80
2018-06-05T14:55:13.843Z,46.20
2018-06-05T14:57:43.012Z,44.20
2018-06-05T15:00:12.171Z,44.00
2018-06-05T15:02:41.410Z,45.30
2018-06-05T15:05:10.606Z,43.90
2018-06-05T15:07:39.765Z,44.80
2018-06-05T15:10:09.061Z,45.20
2018-06-05T15:12:38.204Z,44.40
2018-06-05T15:15:07.353Z,44.30
2018-06-05T15:17:36.730Z,44.60
2018-06-05T15:20:05.874Z,43.60
2018-06-05T15:22:35.012Z,42.50
2018-06-05T15:25:04.178Z,42.60
2018-06-05T15:27:33.313Z,42.90
2018-06-05T15:30:02.483Z,43.20
2018-06-05T15:32:31.646Z,42.60
2018-06-05T15:35:00.813Z,43.30
2018-06-05T15:37:30.305Z,43.20
2018-06-05T15:39:59.536Z,43.40
2018-06-05T15:42:28.675Z,43.80
2018-06-05T15:44:57.861Z,43.10
2018-06-05T15:47:27.009Z,43.70
2018-06-05T15:49:56.178Z,43.90
2018-06-05T15:52:25.335Z,44.00
2018-06-05T15:54:54.533Z,44.20
2018-06-05T15:57:23.681Z,44.70
2018-06-05T15:59:52.842Z,45.30
2018-06-05T16:02:21.989Z,43.70
2018-06-05T16:04:51.277Z,44.40
2018-06-05T16:07:20.434Z,43.00
2018-06-05T16:09:49.586Z,42.90
2018-06-05T16:12:19.031Z,43.50
2018-06-05T16:14:48.168Z,42.60
2018-06-05T16:19:46.249Z,42.90
2018-06-05T16:22:15.405Z,42.70
2018-06-05T16:24:44.564Z,42.30
2018-06-05T16:27:13.777Z,42.70
2018-06-05T16:29:49.804Z,41.70
2018-06-05T16:32:18.949Z,41.40
2018-06-05T16:34:48.089Z,45.90
2018-06-05T16:37:17.249Z,46.20
2018-06-05T16:39:46.417Z,43.40
2018-06-05T16:42:15.581Z,43.10
2018-06-05T16:44:44.725Z,43.50
2018-06-05T16:47:13.861Z,44.40
2018-06-05T16:49:43.022Z,44.70
2018-06-05T16:52:12.186Z,47.80
2018-06-05T16:54:41.325Z,46.80
2018-06-05T16:57:10.529Z,46.60
2018-06-05T16:59:39.686Z,44.80
2018-06-05T17:02:08.994Z,46.70
2018-06-05T17:04:38.373Z,46.40
2018-06-05T17:07:07.432Z,47.50
2018-06-05T17:09:36.572Z,46.20
2018-06-05T17:17:04.037Z,44.40
2018-06-05T17:19:33.206Z,42.00
2018-06-05T17:22:02.340Z,43.20
2018-06-05T17:24:31.503Z,43.50
2018-06-05T17:27:00.650Z,44.30
2018-06-05T17:29:29.800Z,45.00
2018-06-05T17:31:58.939Z,44.10
2018-06-05T17:34:28.093Z,43.50
2018-06-05T17:36:57.242Z,43.20
2018-06-05T17:39:26.445Z,43.60
2018-06-05T17:41:55.596Z,44.20
2018-06-05T17:44:25.026Z,43.80
2018-06-05T17:46:54.164Z,43.10
2018-06-05T17:49:23.321Z,43.80
2018-06-05T17:51:52.497Z,44.40
2018-06-05T17:56:50.573Z,44.70
2018-06-05T17:59:19.730Z,44.50
2018-06-05T18:01:49.001Z,45.20
2018-06-05T18:04:18.150Z,44.80
2018-06-05T18:06:47.301Z,45.30
2018-06-05T18:09:16.473Z,46.20
2018-06-05T18:14:14.553Z,47.20
2018-06-05T18:16:43.701Z,47.10
2018-06-05T18:19:12.870Z,46.70
2018-06-05T18:21:42.030Z,46.90
2018-06-05T18:24:11.166Z,47.50
2018-06-05T18:26:40.354Z,47.80
2018-06-05T18:29:09.468Z,47.70
2018-06-05T18:31:38.640Z,48.40
2018-06-05T18:34:07.789Z,48.60
2018-06-05T18:36:36.929Z,48.80
2018-06-05T18:39:08.365Z,48.90
2018-06-05T18:41:37.505Z,49.70
2018-06-05T18:44:06.677Z,49.50
2018-06-05T18:46:35.829Z,49.90
2018-06-05T18:49:04.985Z,50.40
2018-06-05T18:51:34.142Z,50.70
2018-06-05T18:54:03.382Z,50.80
2018-06-05T18:59:01.433Z,51.00
2018-06-05T19:01:30.596Z,51.40
2018-06-05T19:03:59.800Z,51.50
2018-06-05T19:06:29.061Z,51.60
2018-06-05T19:08:58.225Z,51.70
2018-06-05T19:11:27.387Z,51.80
2018-06-05T19:13:56.538Z,52.00
2018-06-05T19:16:25.693Z,52.00
2018-06-05T19:18:54.836Z,52.20
2018-06-05T19:21:24.045Z,52.20
2018-06-05T19:23:53.214Z,52.50
2018-06-05T19:26:22.645Z,52.60
2018-06-05T19:28:51.860Z,52.10
2018-06-05T19:31:21.076Z,52.30
2018-06-05T19:33:50.336Z,52.20
2018-06-05T19:36:19.490Z,52.40
2018-06-05T19:38:48.703Z,52.40
2018-06-05T19:41:18.148Z,52.80
2018-06-05T19:43:47.324Z,53.00
2018-06-05T19:46:16.563Z,53.00
2018-06-05T19:48:45.730Z,53.40
2018-06-05T19:51:15.440Z,53.30
2018-06-05T19:53:44.899Z,53.90
2018-06-05T19:56:14.197Z,54.10
2018-06-05T19:58:43.338Z,54.80
2018-06-05T20:01:12.578Z,54.80
2018-06-05T20:03:41.754Z,55.00
2018-06-05T20:06:10.901Z,55.20
2018-06-05T20:08:40.221Z,55.30
2018-06-05T20:11:09.371Z,55.50
2018-06-05T20:13:38.546Z,56.00
2018-06-05T20:16:07.746Z,55.60
2018-06-05T20:18:36.923Z,55.00
2018-06-05T20:21:06.221Z,55.70
2018-06-05T20:23:35.461Z,55.80
2018-06-05T20:26:04.603Z,55.90
2018-06-05T20:28:33.750Z,56.40
2018-06-05T20:31:02.913Z,56.70
2018-06-05T20:33:32.074Z,56.40
2018-06-05T20:36:01.226Z,56.70
2018-06-05T20:38:30.418Z,56.90
2018-06-05T20:40:59.582Z,56.90
2018-06-05T20:43:29.101Z,57.00
2018-06-05T20:45:58.257Z,57.50
2018-06-05T20:48:27.437Z,56.60
2018-06-05T20:50:56.635Z,58.00
2018-06-05T20:53:25.790Z,57.20
2018-06-05T20:55:54.969Z,57.50
2018-06-05T20:58:24.137Z,57.10
2018-06-05T21:00:53.292Z,57.10
2018-06-05T21:03:22.510Z,57.10
2018-06-05T21:05:52.033Z,57.00
2018-06-05T21:08:21.176Z,56.80
2018-06-05T21:10:50.370Z,57.00
2018-06-05T21:13:19.518Z,57.70
2018-06-05T21:15:48.668Z,57.50
2018-06-05T21:18:17.906Z,57.20
2018-06-05T21:20:47.066Z,56.90
2018-06-05T21:23:16.225Z,57.70
2018-06-05T21:25:45.673Z,57.40
2018-06-05T21:28:14.905Z,57.10
2018-06-05T21:30:44.052Z,57.30
2018-06-05T21:35:42.257Z,57.40
2018-06-05T21:38:11.420Z,57.30
2018-06-05T21:40:40.569Z,57.00
2018-06-05T21:43:09.710Z,57.30
2018-06-05T21:45:38.983Z,57.40
2018-06-05T21:48:08.125Z,57.40
2018-06-05T21:50:37.466Z,57.50
2018-06-05T21:53:06.653Z,58.20
2018-06-05T21:55:35.821Z,57.50
2018-06-05T21:58:05.325Z,57.50
2018-06-05T22:00:34.491Z,57.90
2018-06-05T22:03:03.697Z,58.30
2018-06-05T22:05:32.850Z,58.10
2018-06-05T22:08:02.050Z,57.70
2018-06-05T22:10:31.201Z,57.50
2018-06-05T22:13:00.353Z,57.50
2018-06-05T22:15:29.505Z,58.30
2018-06-05T22:17:58.655Z,58.30
2018-06-05T22:20:27.949Z,58.40
2018-06-05T22:22:57.105Z,58.30
2018-06-05T22:25:26.329Z,58.70
2018-06-05T22:27:55.481Z,58.50
2018-06-05T22:30:24.637Z,58.90
2018-06-05T22:32:54.007Z,58.60
2018-06-05T22:35:23.214Z,58.70
2018-06-05T22:37:52.409Z,59.00
2018-06-05T22:40:21.560Z,59.60
2018-06-05T22:42:50.711Z,59.70
2018-06-05T22:45:19.869Z,59.50
2018-06-05T22:47:49.037Z,59.80
2018-06-05T22:50:18.196Z,59.90
2018-06-05T22:52:47.369Z,60.10
2018-06-05T22:55:16.513Z,59.80
2018-06-05T22:57:45.657Z,60.50
2018-06-05T23:00:27.297Z,59.50
2018-06-05T23:02:56.444Z,59.60
2018-06-05T23:05:25.597Z,59.80
2018-06-05T23:07:54.761Z,59.80
2018-06-05T23:10:23.917Z,60.20
2018-06-05T23:12:53.078Z,60.10
2018-06-05T23:15:22.219Z,60.20
2018-06-05T23:17:51.390Z,60.50
2018-06-05T23:20:20.548Z,60.40
2018-06-05T23:22:49.694Z,60.80
2018-06-05T23:25:19.137Z,60.80
2018-06-05T23:30:17.242Z,61.20
2018-06-05T23:32:46.734Z,61.10
2018-06-05T23:35:15.890Z,61.20
2018-06-05T23:37:45.079Z,61.60
2018-06-05T23:40:14.225Z,61.80
2018-06-05T23:42:43.456Z,61.60
2018-06-05T23:45:12.625Z,61.70
2018-06-05T23:50:10.716Z,61.60
2018-06-05T23:52:39.890Z,61.90
2018-06-05T23:55:09.073Z,61.90
2018-06-05T23:57:38.201Z,62.10
